Time;durP1;ratioP1;P1;durP2;ratioP2;P2;SDS_P1;SDS_P2;PMS_P1;PMS_P2;Temp;Humidity;BMP_temperature;BMP_pressure;BME280_temperature;BME280_humidity;BME280_pressure;Samples;Min_cycle;Max_cycle;Signal;HPM_P1;HPM_P2
2023/12/18 00:00:21;;;;;;;8.80;3.92;;;6.90;95.50;;;;;;5015381;28;20113;-74
2023/12/18 00:02:47;;;;;;;8.15;4.00;;;6.90;95.70;;;;;;5020291;28;20133;-73
2023/12/18 00:05:12;;;;;;;9.07;4.72;;;6.90;95.80;;;;;;5029972;28;20419;-74
2023/12/18 00:07:38;;;;;;;7.72;4.30;;;6.90;95.80;;;;;;5023381;28;20573;-73
2023/12/18 00:10:04;;;;;;;7.35;3.80;;;6.80;96.10;;;;;;5015275;28;20038;-73
2023/12/18 00:12:29;;;;;;;9.30;4.68;;;6.80;96.10;;;;;;5011194;28;20038;-73
2023/12/18 00:14:54;;;;;;;8.20;4.32;;;6.90;95.80;;;;;;5018195;28;20029;-73
2023/12/18 00:17:20;;;;;;;7.18;3.83;;;6.90;95.90;;;;;;5013049;28;20032;-73
2023/12/18 00:19:45;;;;;;;9.48;5.40;;;6.90;96.00;;;;;;5015699;28;20418;-73
2023/12/18 00:22:11;;;;;;;10.63;5.00;;;6.80;96.10;;;;;;5019391;28;20129;-73
2023/12/18 00:24:36;;;;;;;8.25;4.18;;;6.80;96.20;;;;;;5012834;28;20108;-74
2023/12/18 00:27:02;;;;;;;9.10;4.00;;;6.80;96.20;;;;;;5013551;28;20038;-73
2023/12/18 00:29:28;;;;;;;6.65;3.72;;;6.80;96.30;;;;;;5011657;28;20065;-73
2023/12/18 00:31:53;;;;;;;9.07;4.22;;;6.80;96.30;;;;;;5014484;28;20034;-73
2023/12/18 00:34:18;;;;;;;6.72;4.03;;;6.80;96.40;;;;;;5018974;28;20038;-73
2023/12/18 00:36:44;;;;;;;8.95;3.95;;;6.80;96.30;;;;;;5014432;28;20030;-73
2023/12/18 00:39:11;;;;;;;8.68;4.10;;;6.80;96.30;;;;;;5023108;28;20057;-73
2023/12/18 00:41:37;;;;;;;9.23;5.05;;;6.80;96.10;;;;;;5023642;28;20030;-73
2023/12/18 00:44:03;;;;;;;9.60;4.50;;;6.80;96.30;;;;;;5020842;28;20049;-73
2023/12/18 00:46:28;;;;;;;9.05;4.53;;;6.80;96.30;;;;;;5016828;28;20124;-74
2023/12/18 00:48:54;;;;;;;9.07;4.07;;;6.80;96.30;;;;;;5021536;28;20176;-74
2023/12/18 00:51:20;;;;;;;9.80;4.57;;;6.80;96.20;;;;;;5032785;28;20084;-73
2023/12/18 00:53:46;;;;;;;8.20;4.20;;;6.80;96.00;;;;;;5021420;28;20037;-74
2023/12/18 00:56:11;;;;;;;10.60;3.90;;;6.80;96.20;;;;;;5014256;28;20101;-74
2023/12/18 00:58:36;;;;;;;7.90;3.80;;;6.80;96.40;;;;;;5014791;28;20570;-73
2023/12/18 01:01:02;;;;;;;9.15;4.47;;;6.80;96.40;;;;;;5019588;28;20139;-74
2023/12/18 01:03:28;;;;;;;7.70;4.18;;;6.70;96.40;;;;;;5011882;28;20464;-73
2023/12/18 01:05:54;;;;;;;8.15;3.65;;;6.70;96.50;;;;;;5014115;28;20357;-75
2023/12/18 01:08:19;;;;;;;9.23;4.65;;;6.70;96.50;;;;;;5019349;28;20125;-73
2023/12/18 01:10:45;;;;;;;8.30;3.90;;;6.70;96.50;;;;;;5017066;28;20381;-74
2023/12/18 01:13:10;;;;;;;6.90;3.97;;;6.70;96.70;;;;;;5013764;28;20114;-73
2023/12/18 01:15:36;;;;;;;10.25;4.38;;;6.70;96.70;;;;;;5032992;28;20077;-74
2023/12/18 01:18:01;;;;;;;8.10;4.30;;;6.70;96.80;;;;;;5018236;28;20029;-73
2023/12/18 01:20:27;;;;;;;7.82;4.47;;;6.70;96.80;;;;;;5025696;28;20022;-73
2023/12/18 01:22:53;;;;;;;9.88;4.90;;;6.70;96.90;;;;;;5011378;28;20037;-73
2023/12/18 01:25:18;;;;;;;10.70;3.97;;;6.70;96.90;;;;;;5014029;28;20034;-74
2023/12/18 01:27:44;;;;;;;7.78;3.85;;;6.70;96.90;;;;;;5019440;28;20040;-73
2023/12/18 01:30:10;;;;;;;10.77;4.78;;;6.70;97.00;;;;;;5024606;28;20485;-73
2023/12/18 01:32:35;;;;;;;7.60;4.32;;;6.80;97.00;;;;;;5028655;28;20038;-73
2023/12/18 01:35:01;;;;;;;9.63;4.13;;;6.70;97.00;;;;;;5030558;28;20034;-73
2023/12/18 01:37:26;;;;;;;7.65;4.82;;;6.70;97.00;;;;;;5020081;28;20449;-73
2023/12/18 01:39:52;;;;;;;8.95;4.75;;;6.70;97.10;;;;;;5013359;28;20565;-74
2023/12/18 01:42:17;;;;;;;7.80;4.35;;;6.80;97.00;;;;;;5017670;28;20099;-74
2023/12/18 01:44:43;;;;;;;7.45;4.13;;;6.80;97.00;;;;;;5020133;28;20045;-73
2023/12/18 01:47:08;;;;;;;7.57;4.20;;;6.80;97.10;;;;;;5016551;28;20029;-73
2023/12/18 01:49:35;;;;;;;8.75;4.25;;;6.70;97.10;;;;;;5030484;28;20389;-74
2023/12/18 01:52:01;;;;;;;7.22;4.40;;;6.80;97.00;;;;;;5017380;28;20041;-73
2023/12/18 01:54:26;;;;;;;9.13;4.03;;;6.70;97.10;;;;;;5024153;28;20025;-73
2023/12/18 01:56:55;;;;;;;7.45;4.28;;;6.80;97.10;;;;;;5022986;28;20533;-73
2023/12/18 01:59:22;;;;;;;7.72;4.35;;;6.80;97.10;;;;;;5018737;28;20462;-73
2023/12/18 02:01:49;;;;;;;8.15;4.35;;;6.80;97.20;;;;;;5028507;28;20033;-73
2023/12/18 02:04:16;;;;;;;7.88;4.95;;;6.80;97.10;;;;;;5013946;28;20130;-73
2023/12/18 02:06:42;;;;;;;10.80;4.80;;;6.80;97.10;;;;;;5025587;28;20046;-73
2023/12/18 02:09:09;;;;;;;8.30;4.55;;;6.80;97.20;;;;;;5020411;28;20026;-73
2023/12/18 02:11:34;;;;;;;7.82;4.30;;;6.80;97.30;;;;;;5021733;28;20051;-73
2023/12/18 02:13:59;;;;;;;9.95;4.70;;;6.70;97.30;;;;;;5031104;28;20036;-74
2023/12/18 02:16:25;;;;;;;8.45;4.47;;;6.80;97.50;;;;;;5014028;28;20064;-73
2023/12/18 02:18:51;;;;;;;7.68;4.25;;;6.80;97.40;;;;;;5019225;28;20300;-73
2023/12/18 02:21:20;;;;;;;10.40;5.05;;;6.80;97.40;;;;;;5018235;28;20032;-73
2023/12/18 02:23:47;;;;;;;9.30;4.60;;;6.80;97.50;;;;;;5031765;28;20038;-73
2023/12/18 02:26:13;;;;;;;7.28;4.38;;;6.80;97.40;;;;;;5012868;28;20037;-73
2023/12/18 02:28:38;;;;;;;9.27;5.13;;;6.80;97.50;;;;;;5013884;28;20105;-73
2023/12/18 02:31:07;;;;;;;10.07;4.85;;;6.80;97.40;;;;;;5022074;28;20053;-72
2023/12/18 02:33:32;;;;;;;10.63;4.95;;;6.80;97.40;;;;;;5027334;28;20124;-74
2023/12/18 02:36:01;;;;;;;13.30;4.50;;;6.80;97.50;;;;;;5027040;28;20116;-73
2023/12/18 02:38:27;;;;;;;10.60;5.53;;;6.80;97.60;;;;;;5011990;28;20029;-74
2023/12/18 02:40:52;;;;;;;9.38;5.13;;;6.80;97.60;;;;;;5019063;28;20103;-73
2023/12/18 02:43:18;;;;;;;10.23;5.22;;;6.80;97.60;;;;;;5023109;28;20029;-73
2023/12/18 02:45:43;;;;;;;7.82;5.30;;;6.80;97.80;;;;;;5010380;28;20444;-74
2023/12/18 02:48:09;;;;;;;8.80;4.93;;;6.80;97.80;;;;;;5018163;28;20033;-74
2023/12/18 02:50:34;;;;;;;8.95;4.75;;;6.70;97.90;;;;;;5018050;28;20055;-73
2023/12/18 02:53:00;;;;;;;8.70;4.50;;;6.70;98.00;;;;;;5021194;28;20034;-73
2023/12/18 02:55:25;;;;;;;9.02;5.10;;;6.70;98.00;;;;;;5026314;28;20397;-74
2023/12/18 02:57:51;;;;;;;14.50;6.25;;;6.70;98.00;;;;;;5020015;28;20038;-74
2023/12/18 03:00:16;;;;;;;9.55;4.88;;;6.70;98.00;;;;;;5019114;28;20128;-73
2023/12/18 03:02:42;;;;;;;10.85;5.70;;;6.70;98.10;;;;;;5016388;28;20068;-74
2023/12/18 03:05:08;;;;;;;9.60;5.03;;;6.70;98.10;;;;;;5008016;28;20161;-73
2023/12/18 03:07:34;;;;;;;10.25;4.90;;;6.70;98.10;;;;;;5010939;28;20217;-73
2023/12/18 03:09:59;;;;;;;8.88;4.57;;;6.70;98.20;;;;;;5016138;28;20316;-73
2023/12/18 03:12:25;;;;;;;10.45;5.13;;;6.70;98.20;;;;;;5016520;28;20041;-73
2023/12/18 03:14:50;;;;;;;8.40;4.65;;;6.60;98.40;;;;;;5038222;28;20030;-73
2023/12/18 03:17:16;;;;;;;10.82;5.32;;;6.60;98.50;;;;;;5021018;28;20183;-74
2023/12/18 03:19:41;;;;;;;10.90;5.95;;;6.60;98.60;;;;;;5008425;28;20069;-73
2023/12/18 03:22:07;;;;;;;10.85;5.15;;;6.50;98.60;;;;;;5024346;28;20021;-72
2023/12/18 03:24:33;;;;;;;9.50;5.45;;;6.50;98.70;;;;;;5019394;28;20025;-72
2023/12/18 03:26:58;;;;;;;10.93;5.30;;;6.50;98.80;;;;;;5017338;28;20053;-72
2023/12/18 03:29:24;;;;;;;14.02;5.90;;;6.50;98.90;;;;;;5012703;28;20512;-72
2023/12/18 03:31:49;;;;;;;8.93;5.22;;;6.50;99.00;;;;;;5019890;28;20046;-72
2023/12/18 03:34:15;;;;;;;12.15;6.35;;;6.50;99.00;;;;;;5016691;28;20025;-73
2023/12/18 03:36:40;;;;;;;9.35;5.30;;;6.50;99.10;;;;;;5032160;28;20037;-73
2023/12/18 03:39:06;;;;;;;10.20;5.57;;;6.40;99.20;;;;;;5007955;28;20137;-73
2023/12/18 03:41:31;;;;;;;11.50;5.82;;;6.50;99.30;;;;;;5022223;28;20104;-73
2023/12/18 03:43:57;;;;;;;11.27;5.57;;;6.40;99.30;;;;;;5020017;28;20061;-73
2023/12/18 03:46:23;;;;;;;12.65;5.90;;;6.40;99.40;;;;;;5008316;28;20034;-74
2023/12/18 03:48:48;;;;;;;12.60;5.45;;;6.40;99.50;;;;;;5016930;28;20373;-73
2023/12/18 03:51:13;;;;;;;11.13;6.43;;;6.40;99.60;;;;;;5007878;28;20080;-73
2023/12/18 03:53:39;;;;;;;11.10;5.55;;;6.40;99.60;;;;;;5013597;28;20107;-73
2023/12/18 03:56:05;;;;;;;13.43;5.57;;;6.40;99.60;;;;;;5011954;28;20136;-73
2023/12/18 03:58:30;;;;;;;11.10;5.40;;;6.40;99.60;;;;;;5010029;28;20148;-73
2023/12/18 04:00:56;;;;;;;10.48;6.15;;;6.40;99.70;;;;;;5031794;28;20036;-72
2023/12/18 04:03:21;;;;;;;12.13;5.45;;;6.40;99.80;;;;;;5011325;28;20481;-73
2023/12/18 04:05:47;;;;;;;10.30;5.05;;;6.30;99.90;;;;;;5012365;28;20141;-73
2023/12/18 04:08:12;;;;;;;12.48;6.18;;;6.30;99.90;;;;;;5010203;28;20583;-73
2023/12/18 04:10:38;;;;;;;11.50;6.28;;;6.30;99.90;;;;;;5020840;28;20030;-72
2023/12/18 04:13:03;;;;;;;12.20;6.13;;;6.30;99.90;;;;;;5011353;28;20061;-74
2023/12/18 04:15:29;;;;;;;9.68;4.80;;;6.30;99.90;;;;;;5020450;28;20053;-73
2023/12/18 04:17:55;;;;;;;12.23;5.95;;;6.30;99.90;;;;;;5015538;28;20034;-74
2023/12/18 04:20:21;;;;;;;11.70;5.28;;;6.30;99.90;;;;;;5017823;28;20037;-73
2023/12/18 04:22:47;;;;;;;10.18;5.80;;;6.30;99.90;;;;;;5010764;28;20052;-73
2023/12/18 04:25:12;;;;;;;11.77;6.95;;;6.30;99.90;;;;;;5011350;28;20125;-73
2023/12/18 04:27:38;;;;;;;11.35;5.78;;;6.30;99.90;;;;;;5008365;28;20042;-73
2023/12/18 04:30:04;;;;;;;11.93;6.32;;;6.30;99.90;;;;;;5009612;28;20061;-73
2023/12/18 04:32:29;;;;;;;10.85;6.32;;;6.30;99.90;;;;;;5014671;28;20042;-73
2023/12/18 04:34:56;;;;;;;12.23;5.80;;;6.30;99.90;;;;;;5015500;28;20095;-73
2023/12/18 04:37:22;;;;;;;10.07;5.70;;;6.20;99.90;;;;;;5028407;28;20087;-73
2023/12/18 04:39:47;;;;;;;11.93;6.57;;;6.30;99.90;;;;;;5017882;28;20030;-73
2023/12/18 04:42:12;;;;;;;10.57;5.90;;;6.30;99.90;;;;;;5015637;28;20087;-73
2023/12/18 04:44:38;;;;;;;11.70;6.93;;;6.20;99.90;;;;;;5018070;28;20030;-73
2023/12/18 04:47:03;;;;;;;13.27;5.88;;;6.20;99.90;;;;;;5021782;28;20025;-73
2023/12/18 04:49:29;;;;;;;15.73;7.72;;;6.20;99.90;;;;;;5016798;28;20478;-73
2023/12/18 04:51:54;;;;;;;14.55;6.43;;;6.20;99.90;;;;;;5025320;28;20171;-73
2023/12/18 04:54:20;;;;;;;10.57;5.63;;;6.20;99.90;;;;;;5023316;28;20041;-73
2023/12/18 04:56:45;;;;;;;10.70;5.38;;;6.20;99.90;;;;;;5018036;28;20427;-73
2023/12/18 04:59:11;;;;;;;10.40;5.32;;;6.20;99.90;;;;;;5033525;28;20140;-73
2023/12/18 05:01:37;;;;;;;14.82;6.20;;;6.20;99.90;;;;;;5020314;28;20372;-73
2023/12/18 05:04:03;;;;;;;11.77;6.22;;;6.20;99.90;;;;;;5019603;28;20195;-73
2023/12/18 05:06:28;;;;;;;13.80;6.50;;;6.20;99.90;;;;;;5024790;28;20050;-72
2023/12/18 05:08:55;;;;;;;9.73;6.00;;;6.10;99.90;;;;;;5037052;28;20141;-72
2023/12/18 05:11:22;;;;;;;12.00;6.22;;;6.20;99.90;;;;;;5020594;28;20389;-72
2023/12/18 05:13:48;;;;;;;17.92;5.95;;;6.20;99.90;;;;;;5017660;28;20478;-72
2023/12/18 05:16:15;;;;;;;14.05;6.78;;;6.10;99.90;;;;;;5015760;28;20117;-72
2023/12/18 05:18:40;;;;;;;12.65;7.30;;;6.10;99.90;;;;;;5029629;28;20037;-72
2023/12/18 05:21:06;;;;;;;10.27;5.53;;;6.10;99.90;;;;;;5015642;28;20034;-73
2023/12/18 05:23:32;;;;;;;12.30;6.93;;;6.10;99.90;;;;;;5024104;28;20126;-72
2023/12/18 05:25:58;;;;;;;13.70;6.55;;;6.10;99.90;;;;;;5014284;28;20092;-72
2023/12/18 05:28:24;;;;;;;12.25;6.72;;;6.10;99.90;;;;;;5029778;28;20068;-74
2023/12/18 05:30:50;;;;;;;11.85;6.32;;;6.10;99.90;;;;;;5018164;28;20470;-74
2023/12/18 05:33:15;;;;;;;14.40;6.82;;;6.10;99.90;;;;;;5012503;28;20112;-74
2023/12/18 05:35:41;;;;;;;12.05;6.35;;;6.10;99.90;;;;;;5015047;28;20121;-74
2023/12/18 05:38:07;;;;;;;11.55;6.18;;;6.10;99.90;;;;;;5022298;28;20037;-74
2023/12/18 05:40:35;;;;;;;13.18;6.65;;;6.10;99.90;;;;;;5022791;28;20342;-74
2023/12/18 05:43:01;;;;;;;14.02;7.20;;;6.10;99.90;;;;;;5013611;28;20423;-73
2023/12/18 05:45:26;;;;;;;11.85;6.72;;;6.10;99.90;;;;;;5026471;28;20034;-74
2023/12/18 05:47:51;;;;;;;14.55;6.88;;;6.10;99.90;;;;;;5010974;28;20038;-74
2023/12/18 05:50:17;;;;;;;11.38;6.72;;;6.10;99.90;;;;;;5016217;28;20030;-74
2023/12/18 05:52:42;;;;;;;14.82;6.78;;;6.10;99.90;;;;;;5017344;28;20575;-74
2023/12/18 05:55:09;;;;;;;14.02;6.53;;;6.10;99.90;;;;;;5018252;28;20021;-71
2023/12/18 05:57:35;;;;;;;12.10;7.18;;;6.10;99.90;;;;;;5019226;28;20251;-71
2023/12/18 06:00:01;;;;;;;11.40;5.97;;;6.10;99.90;;;;;;5016816;28;20100;-72
2023/12/18 06:02:26;;;;;;;12.00;7.18;;;6.10;99.90;;;;;;5024527;28;20041;-71
2023/12/18 06:04:52;;;;;;;12.95;6.68;;;6.10;99.90;;;;;;5008757;28;20036;-74
2023/12/18 06:07:17;;;;;;;14.65;7.00;;;6.10;99.90;;;;;;5014136;28;20432;-74
2023/12/18 06:09:43;;;;;;;11.38;6.25;;;6.10;99.90;;;;;;5018955;28;20042;-74
2023/12/18 06:12:08;;;;;;;12.98;6.38;;;6.10;99.90;;;;;;5011279;28;20068;-74
2023/12/18 06:14:33;;;;;;;16.20;6.70;;;6.10;99.90;;;;;;5009965;28;20026;-74
2023/12/18 06:16:59;;;;;;;17.92;7.65;;;6.20;99.90;;;;;;5011467;28;20237;-71
2023/12/18 06:19:24;;;;;;;14.18;7.57;;;6.20;99.90;;;;;;5013539;28;20410;-73
2023/12/18 06:21:50;;;;;;;12.23;6.75;;;6.20;99.90;;;;;;5020501;28;20034;-73
2023/12/18 06:24:15;;;;;;;13.77;6.88;;;6.20;99.90;;;;;;5013516;28;20390;-73
2023/12/18 06:26:41;;;;;;;14.35;7.00;;;6.20;99.90;;;;;;5008075;28;20026;-73
2023/12/18 06:29:06;;;;;;;16.05;7.80;;;6.20;99.90;;;;;;5018078;28;20078;-73
2023/12/18 06:31:33;;;;;;;13.77;7.63;;;6.20;99.90;;;;;;5018163;28;20110;-74
2023/12/18 06:33:58;;;;;;;14.73;7.40;;;6.20;99.90;;;;;;5017855;28;20097;-72
2023/12/18 06:36:24;;;;;;;14.35;6.97;;;6.20;99.90;;;;;;5025454;28;20030;-73
2023/12/18 06:38:49;;;;;;;15.68;7.55;;;6.20;99.90;;;;;;5012311;28;20026;-74
2023/12/18 06:41:15;;;;;;;12.93;7.13;;;6.20;99.90;;;;;;5014921;28;20136;-74
2023/12/18 06:43:40;;;;;;;14.45;6.63;;;6.20;99.90;;;;;;5014552;28;20065;-72
2023/12/18 06:46:06;;;;;;;16.38;7.43;;;6.20;99.90;;;;;;5020579;28;20112;-72
2023/12/18 06:48:32;;;;;;;13.05;7.93;;;6.20;99.90;;;;;;5013421;28;20110;-72
2023/12/18 06:50:58;;;;;;;11.25;6.88;;;6.20;99.90;;;;;;5008764;28;20036;-73
2023/12/18 06:53:24;;;;;;;13.35;7.47;;;6.10;99.90;;;;;;5006054;28;20110;-73
2023/12/18 06:55:50;;;;;;;13.93;6.78;;;6.10;99.90;;;;;;5015050;28;20042;-71
2023/12/18 06:58:15;;;;;;;12.13;7.00;;;6.10;99.90;;;;;;5011122;28;20030;-71
2023/12/18 07:00:42;;;;;;;13.05;6.47;;;6.10;99.90;;;;;;5033337;28;20175;-74
2023/12/18 07:03:08;;;;;;;12.25;6.55;;;6.10;99.90;;;;;;5006643;28;20029;-72
2023/12/18 07:05:33;;;;;;;10.95;6.82;;;6.10;99.90;;;;;;5008231;28;20404;-72
2023/12/18 07:07:59;;;;;;;14.80;7.18;;;6.10;99.90;;;;;;5027496;28;20034;-73
2023/12/18 07:10:24;;;;;;;11.70;6.75;;;6.10;99.90;;;;;;5006639;28;20061;-73
2023/12/18 07:12:50;;;;;;;12.95;7.15;;;6.10;99.90;;;;;;5011892;28;20125;-73
2023/12/18 07:15:16;;;;;;;10.82;6.75;;;6.10;99.90;;;;;;5018727;28;20473;-73
2023/12/18 07:17:41;;;;;;;11.90;6.28;;;6.10;99.90;;;;;;5013724;28;20402;-73
2023/12/18 07:20:08;;;;;;;12.13;6.88;;;6.10;99.90;;;;;;5022981;28;20049;-73
2023/12/18 07:22:34;;;;;;;11.57;6.82;;;6.10;99.90;;;;;;5012019;28;20400;-73
2023/12/18 07:25:00;;;;;;;10.55;6.10;;;6.20;99.90;;;;;;5013811;28;20153;-73
2023/12/18 07:27:26;;;;;;;11.30;6.60;;;6.10;99.90;;;;;;5012983;28;20480;-74
2023/12/18 07:29:52;;;;;;;13.18;7.18;;;6.20;99.90;;;;;;5012767;28;20042;-73
2023/12/18 07:32:17;;;;;;;16.98;7.13;;;6.20;99.90;;;;;;5031814;28;20457;-73
2023/12/18 07:34:43;;;;;;;11.00;6.43;;;6.20;99.90;;;;;;5012663;28;20115;-73
2023/12/18 07:37:08;;;;;;;15.45;7.53;;;6.20;99.90;;;;;;5013510;28;20034;-73
2023/12/18 07:39:34;;;;;;;13.85;6.65;;;6.20;99.90;;;;;;5009894;28;20053;-73
2023/12/18 07:42:01;;;;;;;13.55;6.88;;;6.20;99.90;;;;;;5009682;28;20029;-73
2023/12/18 07:44:26;;;;;;;15.65;7.72;;;6.20;99.90;;;;;;5016372;28;20480;-73
2023/12/18 07:46:52;;;;;;;14.82;8.25;;;6.10;99.90;;;;;;5010695;28;20122;-73
2023/12/18 07:49:18;;;;;;;17.38;8.40;;;6.20;99.90;;;;;;5009097;28;20112;-73
2023/12/18 07:51:43;;;;;;;13.15;6.75;;;6.10;99.90;;;;;;5010897;28;20100;-73
2023/12/18 07:54:09;;;;;;;13.55;7.80;;;6.10;99.90;;;;;;5019123;28;20107;-74
2023/12/18 07:56:34;;;;;;;12.65;7.40;;;6.20;99.90;;;;;;5015319;28;20167;-73
2023/12/18 07:59:00;;;;;;;14.32;7.45;;;6.20;99.90;;;;;;5013765;28;20037;-73
2023/12/18 08:01:26;;;;;;;14.95;7.07;;;6.20;99.90;;;;;;5012023;28;20045;-73
2023/12/18 08:03:51;;;;;;;13.88;7.28;;;6.10;99.90;;;;;;5015208;28;20030;-73
2023/12/18 08:06:17;;;;;;;16.83;7.75;;;6.20;99.90;;;;;;5009475;28;20482;-73
2023/12/18 08:08:43;;;;;;;12.05;6.40;;;6.20;99.90;;;;;;5018193;28;20041;-73
2023/12/18 08:11:09;;;;;;;13.88;7.25;;;6.20;99.90;;;;;;5024283;28;20030;-73
2023/12/18 08:13:38;;;;;;;17.92;7.57;;;6.20;99.90;;;;;;5018104;28;20117;-77
2023/12/18 08:16:05;;;;;;;11.50;6.22;;;6.20;99.90;;;;;;5009255;28;20787;-74
2023/12/18 08:18:31;;;;;;;13.48;6.40;;;6.20;99.90;;;;;;5013902;28;20434;-76
2023/12/18 08:20:56;;;;;;;15.02;8.00;;;6.20;99.90;;;;;;5019092;28;20060;-74
2023/12/18 08:23:22;;;;;;;13.32;7.25;;;6.20;99.90;;;;;;5010957;28;20181;-74
2023/12/18 08:25:47;;;;;;;14.57;7.70;;;6.20;99.90;;;;;;5007624;28;20042;-74
2023/12/18 08:28:13;;;;;;;11.82;7.28;;;6.20;99.90;;;;;;5024281;28;20079;-75
2023/12/18 08:30:38;;;;;;;14.65;7.43;;;6.20;99.90;;;;;;5010137;28;20034;-74
2023/12/18 08:33:04;;;;;;;13.85;7.28;;;6.20;99.90;;;;;;5024743;28;20486;-74
2023/12/18 08:35:30;;;;;;;13.88;7.38;;;6.20;99.90;;;;;;5028714;28;20442;-74
2023/12/18 08:37:55;;;;;;;20.27;8.65;;;6.30;99.90;;;;;;5013050;28;20029;-74
2023/12/18 08:40:21;;;;;;;19.85;7.80;;;6.30;99.90;;;;;;5015467;28;20132;-74
2023/12/18 08:42:46;;;;;;;15.90;8.40;;;6.30;99.90;;;;;;5014478;28;20082;-74
2023/12/18 08:45:12;;;;;;;14.48;7.18;;;6.30;99.90;;;;;;5017587;28;20033;-74
2023/12/18 08:47:37;;;;;;;13.95;5.93;;;6.30;99.90;;;;;;5014944;28;20107;-74
2023/12/18 08:50:03;;;;;;;12.38;6.60;;;6.30;99.90;;;;;;5019981;28;20450;-74
2023/12/18 08:52:29;;;;;;;18.08;7.57;;;6.30;99.90;;;;;;5022370;28;20076;-74
2023/12/18 08:54:54;;;;;;;13.40;6.85;;;6.30;99.90;;;;;;5024730;28;20041;-74
2023/12/18 08:57:20;;;;;;;13.10;7.00;;;6.40;99.90;;;;;;5019374;28;20064;-74
2023/12/18 08:59:46;;;;;;;13.10;6.80;;;6.40;99.90;;;;;;5020999;28;20029;-75
2023/12/18 09:02:11;;;;;;;15.23;7.22;;;6.40;99.90;;;;;;5018066;28;20030;-74
2023/12/18 09:04:37;;;;;;;14.13;6.70;;;6.40;99.90;;;;;;5023299;28;20049;-74
2023/12/18 09:07:02;;;;;;;15.30;7.10;;;6.40;99.90;;;;;;5012531;28;20493;-75
2023/12/18 09:09:28;;;;;;;15.38;7.40;;;6.50;99.90;;;;;;5017142;28;20411;-75
2023/12/18 09:11:53;;;;;;;14.77;7.40;;;6.50;99.90;;;;;;5021281;28;20095;-75
2023/12/18 09:14:19;;;;;;;15.45;7.32;;;6.50;99.90;;;;;;5014680;28;20113;-75
2023/12/18 09:16:45;;;;;;;15.07;6.85;;;6.50;99.90;;;;;;5022996;28;20033;-74
2023/12/18 09:19:10;;;;;;;12.40;6.50;;;6.50;99.90;;;;;;5015946;28;20041;-75
2023/12/18 09:21:36;;;;;;;13.63;7.47;;;6.50;99.90;;;;;;5026013;28;20041;-74
2023/12/18 09:24:01;;;;;;;12.77;6.70;;;6.50;99.90;;;;;;5018235;28;20426;-75
2023/12/18 09:26:27;;;;;;;12.95;6.47;;;6.50;99.90;;;;;;5021015;28;20414;-74
2023/12/18 09:28:52;;;;;;;14.10;6.90;;;6.60;99.90;;;;;;5020662;28;20062;-74
2023/12/18 09:31:18;;;;;;;13.70;7.18;;;6.60;99.90;;;;;;5013717;28;20434;-75
2023/12/18 09:33:44;;;;;;;15.13;7.72;;;6.60;99.90;;;;;;5015800;28;20041;-74
2023/12/18 09:36:10;;;;;;;11.60;6.90;;;6.60;99.90;;;;;;5026040;28;20025;-74
2023/12/18 09:38:37;;;;;;;14.65;7.47;;;6.60;99.90;;;;;;5024814;28;20025;-75
2023/12/18 09:41:03;;;;;;;17.67;7.80;;;6.60;99.90;;;;;;5016528;28;20030;-75
2023/12/18 09:43:29;;;;;;;15.45;7.78;;;6.60;99.90;;;;;;5018954;28;20117;-74
2023/12/18 09:45:56;;;;;;;12.52;6.90;;;6.60;99.90;;;;;;5020067;28;20033;-74
2023/12/18 09:48:23;;;;;;;12.75;7.65;;;6.70;99.90;;;;;;5013169;28;20128;-75
2023/12/18 09:50:48;;;;;;;11.50;7.00;;;6.60;99.90;;;;;;5018057;28;20084;-74
2023/12/18 09:53:17;;;;;;;14.38;7.57;;;6.60;99.90;;;;;;5020273;28;20056;-75
2023/12/18 09:55:44;;;;;;;11.32;6.50;;;6.60;99.90;;;;;;5022792;28;20381;-74
2023/12/18 09:58:13;;;;;;;15.60;7.53;;;6.70;99.90;;;;;;5028287;28;20113;-74
2023/12/18 10:00:39;;;;;;;12.30;7.20;;;6.60;99.90;;;;;;5028034;28;20086;-74
2023/12/18 10:03:04;;;;;;;14.25;7.22;;;6.60;99.90;;;;;;5019289;28;20334;-74
2023/12/18 10:05:30;;;;;;;13.82;7.10;;;6.60;99.90;;;;;;5028036;28;20045;-74
2023/12/18 10:07:59;;;;;;;12.95;6.65;;;6.60;99.90;;;;;;5017960;28;20064;-74
2023/12/18 10:10:25;;;;;;;16.77;8.13;;;6.70;99.90;;;;;;5019804;28;20462;-75
2023/12/18 10:12:50;;;;;;;14.00;7.97;;;6.60;99.90;;;;;;5024796;28;20164;-74
2023/12/18 10:15:16;;;;;;;12.25;6.57;;;6.70;99.90;;;;;;5023123;28;20465;-74
2023/12/18 10:17:42;;;;;;;14.50;8.07;;;6.70;99.90;;;;;;5009879;28;20092;-74
2023/12/18 10:20:09;;;;;;;16.63;7.15;;;6.70;99.90;;;;;;5006253;28;20120;-74
2023/12/18 10:22:35;;;;;;;13.93;6.78;;;6.70;99.90;;;;;;5013732;28;20026;-74
2023/12/18 10:25:02;;;;;;;12.13;6.82;;;6.70;99.90;;;;;;5019860;28;20040;-75
2023/12/18 10:27:30;;;;;;;17.75;7.85;;;6.70;99.90;;;;;;5013114;28;20037;-74
2023/12/18 10:29:56;;;;;;;12.68;7.22;;;6.80;99.90;;;;;;5011799;28;20048;-75
2023/12/18 10:32:22;;;;;;;16.48;6.93;;;6.70;99.90;;;;;;5021155;28;20025;-74
2023/12/18 10:34:50;;;;;;;16.85;8.15;;;6.70;99.90;;;;;;5025597;28;20038;-74
2023/12/18 10:37:17;;;;;;;14.15;6.80;;;6.70;99.90;;;;;;5024074;28;20549;-75
2023/12/18 10:39:45;;;;;;;13.55;7.35;;;6.70;99.90;;;;;;5019986;28;20132;-74
2023/12/18 10:42:18;;;;;;;13.65;7.13;;;6.70;99.90;;;;;;5019733;28;20112;-74
2023/12/18 10:44:44;;;;;;;13.73;7.40;;;6.70;99.90;;;;;;5017088;28;20052;-74
2023/12/18 10:47:12;;;;;;;10.82;6.88;;;6.70;99.90;;;;;;5018766;28;20032;-74
2023/12/18 10:49:40;;;;;;;11.98;6.28;;;6.80;99.90;;;;;;5010208;28;20105;-74
2023/12/18 10:52:07;;;;;;;14.98;6.43;;;6.80;99.90;;;;;;5016476;28;20118;-75
2023/12/18 10:54:33;;;;;;;14.40;7.03;;;6.80;99.90;;;;;;5017600;28;20057;-74
2023/12/18 10:57:00;;;;;;;14.90;7.35;;;6.90;99.90;;;;;;5036570;28;20105;-75
2023/12/18 10:59:28;;;;;;;11.32;6.90;;;6.90;99.90;;;;;;5034642;28;20423;-74
2023/12/18 11:01:54;;;;;;;12.15;6.55;;;7.00;99.90;;;;;;5012279;28;20034;-74
2023/12/18 11:04:22;;;;;;;11.50;6.35;;;6.90;99.90;;;;;;5013458;28;20052;-74
2023/12/18 11:06:48;;;;;;;12.93;6.65;;;7.00;99.90;;;;;;5014479;28;20237;-74
2023/12/18 11:09:13;;;;;;;15.60;6.68;;;7.00;99.90;;;;;;5028599;28;20037;-74
2023/12/18 11:11:40;;;;;;;15.60;7.63;;;6.90;99.90;;;;;;5018706;28;20041;-74
2023/12/18 11:14:15;;;;;;;13.32;7.03;;;6.90;99.80;;;;;;5012763;28;20048;-74
2023/12/18 11:17:10;;;;;;;15.52;6.93;;;6.90;99.80;;;;;;5016307;28;20030;-74
2023/12/18 11:19:49;;;;;;;14.10;6.88;;;6.90;99.90;;;;;;4984418;28;20042;-74
2023/12/18 11:22:16;;;;;;;13.98;6.80;;;6.90;99.90;;;;;;5024340;28;20127;-74
2023/12/18 11:24:45;;;;;;;13.45;7.03;;;6.90;99.80;;;;;;5012907;28;20033;-74
2023/12/18 11:27:12;;;;;;;13.95;6.18;;;6.90;99.80;;;;;;5015484;28;20033;-74
2023/12/18 11:29:42;;;;;;;16.23;7.05;;;6.90;99.80;;;;;;5015514;28;20108;-74
2023/12/18 11:32:09;;;;;;;13.75;6.45;;;6.90;99.80;;;;;;5016321;28;20025;-74
2023/12/18 11:34:35;;;;;;;10.38;5.45;;;6.90;99.90;;;;;;5011064;28;20036;-73
2023/12/18 11:37:00;;;;;;;14.38;6.35;;;6.90;99.80;;;;;;5017236;28;20046;-74
2023/12/18 11:39:39;;;;;;;12.10;6.53;;;6.80;99.90;;;;;;5014137;28;20060;-74
2023/12/18 11:42:06;;;;;;;15.98;7.70;;;6.80;99.90;;;;;;5015879;28;20036;-74
2023/12/18 11:44:34;;;;;;;13.00;7.03;;;6.80;99.90;;;;;;5016520;28;20042;-74
2023/12/18 11:47:00;;;;;;;10.57;6.50;;;6.80;99.90;;;;;;5032414;28;20517;-74
2023/12/18 11:49:26;;;;;;;13.20;6.57;;;6.80;99.90;;;;;;5022312;28;20107;-74
2023/12/18 11:51:51;;;;;;;14.40;6.97;;;6.80;99.90;;;;;;5018717;28;20038;-74
2023/12/18 11:54:23;;;;;;;12.73;6.60;;;6.80;99.90;;;;;;5013595;28;20106;-74
2023/12/18 11:56:51;;;;;;;12.73;6.95;;;6.80;99.90;;;;;;5016083;28;20033;-74
2023/12/18 11:59:18;;;;;;;13.88;6.47;;;6.70;99.90;;;;;;5015555;28;20521;-74
2023/12/18 12:01:45;;;;;;;11.60;6.55;;;6.80;99.90;;;;;;5016054;28;20076;-73
2023/12/18 12:04:14;;;;;;;12.27;6.65;;;6.70;99.90;;;;;;5008373;28;20323;-73
2023/12/18 12:06:42;;;;;;;10.45;6.38;;;6.70;99.90;;;;;;5038292;28;20374;-73
2023/12/18 12:09:08;;;;;;;9.60;5.15;;;6.70;99.90;;;;;;5022648;28;20036;-72
2023/12/18 12:11:33;;;;;;;13.35;7.20;;;6.70;99.90;;;;;;5021041;28;20037;-73
2023/12/18 12:13:59;;;;;;;11.63;5.72;;;6.70;99.90;;;;;;5020229;28;20110;-73
2023/12/18 12:16:26;;;;;;;12.02;6.18;;;6.60;99.90;;;;;;5028857;28;20053;-73
2023/12/18 12:18:52;;;;;;;14.40;6.68;;;6.60;99.90;;;;;;5010447;28;20086;-73
2023/12/18 12:21:18;;;;;;;13.65;7.38;;;6.60;99.90;;;;;;5015932;28;20033;-73
2023/12/18 12:23:47;;;;;;;11.85;5.53;;;6.60;99.90;;;;;;5018422;28;20357;-70
2023/12/18 12:26:18;;;;;;;11.73;6.30;;;6.60;99.90;;;;;;5019331;28;20117;-76
2023/12/18 12:28:43;;;;;;;11.43;6.40;;;6.60;99.90;;;;;;5017236;28;20025;-76
2023/12/18 12:31:09;;;;;;;13.00;6.43;;;6.60;99.90;;;;;;5017371;28;20106;-74
2023/12/18 12:33:45;;;;;;;14.70;6.20;;;6.60;99.90;;;;;;5016171;28;20147;-73
2023/12/18 12:36:15;;;;;;;13.55;6.35;;;6.60;99.90;;;;;;5016881;28;20038;-74
2023/12/18 12:38:42;;;;;;;10.63;6.35;;;6.60;99.90;;;;;;5013647;28;20052;-69
2023/12/18 12:41:07;;;;;;;13.73;6.93;;;6.60;99.90;;;;;;5033313;28;20038;-69